Time;durP1;ratioP1;P1;durP2;ratioP2;P2;SDS_P1;SDS_P2;PMS_P1;PMS_P2;Temp;Humidity;BMP_temperature;BMP_pressure;BME280_temperature;BME280_humidity;BME280_pressure;Samples;Min_cycle;Max_cycle;Signal;HPM_P1;HPM_P2
2021/09/27 00:00:13;;;;;;;16.77;8.93;;;;;;;10.60;83.94;101369.25;1708748;80;26429;-78
2021/09/27 00:02:42;;;;;;;12.82;7.45;;;;;;;10.59;84.20;101367.06;1736650;81;26445;-78
2021/09/27 00:05:14;;;;;;;12.78;7.90;;;;;;;10.56;84.14;101360.69;1745049;80;28149;-78
2021/09/27 00:07:41;;;;;;;14.75;8.83;;;;;;;10.56;84.49;101362.03;1720932;81;25833;-78
2021/09/27 00:10:13;;;;;;;16.00;8.33;;;;;;;10.55;84.40;101360.86;1718865;80;26012;-78
2021/09/27 00:12:41;;;;;;;15.75;8.70;;;;;;;10.52;84.40;101361.22;1764224;80;26479;-78
2021/09/27 00:15:14;;;;;;;16.45;8.48;;;;;;;10.49;84.56;101358.37;1721377;81;25903;-78
2021/09/27 00:17:41;;;;;;;16.65;8.58;;;;;;;10.48;84.56;101357.17;1723511;80;27618;-78
2021/09/27 00:20:10;;;;;;;15.43;9.38;;;;;;;10.43;84.66;101357.70;1709551;80;25347;-78
2021/09/27 00:22:37;;;;;;;20.08;9.63;;;;;;;10.38;84.70;101352.00;1737678;81;25753;-78
2021/09/27 00:25:06;;;;;;;16.65;8.60;;;;;;;10.37;84.80;101346.82;1739243;81;25796;-78
2021/09/27 00:27:33;;;;;;;18.70;9.23;;;;;;;10.37;84.91;101348.16;1658611;82;26724;-78
2021/09/27 00:30:04;;;;;;;20.95;9.85;;;;;;;10.33;84.88;101347.64;1706027;81;27475;-78
2021/09/27 00:32:31;;;;;;;16.82;9.38;;;;;;;10.31;85.08;101353.66;1735936;81;25759;-78
2021/09/27 00:34:58;;;;;;;20.05;8.28;;;;;;;10.29;85.18;101350.31;1710463;83;25826;-78
2021/09/27 00:37:26;;;;;;;16.52;9.28;;;;;;;10.29;85.18;101354.83;1676727;81;25871;-78
2021/09/27 00:39:53;;;;;;;17.65;8.83;;;;;;;10.29;85.23;101356.16;1697472;81;25829;-78
2021/09/27 00:42:20;;;;;;;18.80;9.35;;;;;;;10.28;85.32;101350.48;1753343;80;27600;-78
2021/09/27 00:44:47;;;;;;;19.27;8.80;;;;;;;10.26;85.24;101345.80;1733156;81;25858;-78
2021/09/27 00:47:14;;;;;;;20.72;9.40;;;;;;;10.28;85.29;101348.66;1655294;81;25957;-78
2021/09/27 00:49:42;;;;;;;19.07;9.93;;;;;;;10.28;85.18;101350.00;1674635;81;26407;-78
2021/09/27 00:52:09;;;;;;;16.27;8.95;;;;;;;10.24;85.14;101338.45;1732280;81;25952;-78
2021/09/27 00:54:37;;;;;;;18.62;9.25;;;;;;;10.20;85.22;101339.78;1734210;81;27488;-78
2021/09/27 00:57:12;;;;;;;17.82;9.23;;;;;;;10.18;85.11;101333.23;1685495;81;26550;-78
2021/09/27 00:59:41;;;;;;;15.98;8.75;;;;;;;10.16;85.20;101338.45;1704320;81;25839;-78
2021/09/27 01:02:10;;;;;;;19.73;10.10;;;;;;;10.11;85.20;101341.62;1704809;81;25862;-78
2021/09/27 01:04:38;;;;;;;16.25;9.60;;;;;;;10.11;85.16;101342.11;1709304;81;25954;-78
2021/09/27 01:07:22;;;;;;;18.92;9.40;;;;;;;10.08;85.16;101333.88;1688979;81;27648;-77
2021/09/27 01:10:04;;;;;;;21.27;10.53;;;;;;;10.06;85.25;101342.08;1679060;81;25897;-79
2021/09/27 01:12:42;;;;;;;19.48;11.53;;;;;;;10.05;85.17;101346.27;1717721;81;25905;-78
2021/09/27 01:15:35;;;;;;;18.50;9.20;;;;;;;10.06;85.19;101338.55;1725311;81;26723;-78
2021/09/27 01:18:52;;;;;;;18.37;9.68;;;;;;;10.07;85.15;101338.91;1710773;81;25833;-78
2021/09/27 01:21:37;;;;;;;17.12;9.40;;;;;;;10.06;84.97;101339.89;1589613;86;27583;-78
2021/09/27 01:24:51;;;;;;;16.12;9.50;;;;;;;10.04;84.92;101343.23;1632125;86;26188;-78
2021/09/27 01:28:14;;;;;;;12.82;9.40;;;;;;;9.99;84.87;101338.37;1738279;80;26517;-78
2021/09/27 01:31:28;;;;;;;15.70;8.95;;;;;;;9.93;84.85;101332.84;1715047;81;26455;-78
2021/09/27 01:34:06;;;;;;;15.83;9.58;;;;;;;9.89;85.00;101337.70;1666406;82;25868;-78
2021/09/27 01:36:54;;;;;;;16.67;9.13;;;;;;;9.82;85.00;101338.50;1702041;83;27552;-78
2021/09/27 01:39:59;;;;;;;19.75;9.88;;;;;;;9.81;85.14;101345.72;1719605;82;27496;-78
2021/09/27 01:42:41;;;;;;;17.32;8.75;;;;;;;9.80;85.08;101345.86;1626674;85;25844;-77
2021/09/27 01:45:16;;;;;;;20.90;9.25;;;;;;;9.77;85.20;101339.52;1638051;82;26002;-78
2021/09/27 01:47:57;;;;;;;17.32;9.55;;;;;;;9.78;85.22;101346.52;1640425;82;25934;-78
2021/09/27 01:50:36;;;;;;;19.00;10.18;;;;;;;9.76;85.12;101352.05;1717390;82;27443;-78
2021/09/27 01:53:11;;;;;;;18.27;9.03;;;;;;;9.74;85.20;101344.69;1727502;81;26256;-78
2021/09/27 01:56:03;;;;;;;19.73;9.60;;;;;;;9.71;85.21;101342.84;1702181;81;25780;-78
2021/09/27 01:58:54;;;;;;;16.35;8.80;;;;;;;9.68;85.32;101344.00;1721204;82;26379;-78
2021/09/27 02:01:54;;;;;;;14.18;8.48;;;;;;;9.66;85.29;101347.84;1731084;82;25807;-78
2021/09/27 02:04:54;;;;;;;16.37;9.33;;;;;;;9.65;85.24;101357.69;1706363;80;27671;-78
2021/09/27 02:07:22;;;;;;;17.65;8.50;;;;;;;9.63;85.35;101356.17;1658308;84;25981;-78
2021/09/27 02:10:11;;;;;;;14.30;8.98;;;;;;;9.60;85.39;101361.34;1717691;81;25312;-78
2021/09/27 02:12:45;;;;;;;11.18;7.58;;;;;;;9.58;85.31;101359.33;1759779;80;25850;-78
2021/09/27 02:15:20;;;;;;;13.93;7.78;;;;;;;9.50;84.98;101359.30;1697718;81;26408;-78
2021/09/27 02:18:07;;;;;;;14.23;8.43;;;;;;;9.40;84.81;101357.27;1700756;80;27439;-78
2021/09/27 02:20:45;;;;;;;16.48;7.55;;;;;;;9.31;84.94;101355.55;1719842;81;25816;-78
2021/09/27 02:23:23;;;;;;;15.43;8.20;;;;;;;9.24;85.09;101356.69;1725795;80;25413;-78
2021/09/27 02:25:51;;;;;;;13.53;7.53;;;;;;;9.20;85.28;101356.67;1718715;81;26695;-78
2021/09/27 02:28:21;;;;;;;14.10;7.72;;;;;;;9.17;85.37;101358.31;1671777;82;25721;-78
2021/09/27 02:31:24;;;;;;;13.30;7.33;;;;;;;9.12;85.42;101354.45;1753044;80;28411;-78
2021/09/27 02:34:06;;;;;;;15.85;7.70;;;;;;;9.07;85.56;101354.92;1756633;80;25774;-78
2021/09/27 02:36:38;;;;;;;12.75;7.45;;;;;;;9.05;85.87;101362.75;1730491;80;25321;-78
2021/09/27 02:39:30;;;;;;;13.58;7.28;;;;;;;9.04;85.91;101359.76;1728665;81;26506;-78
2021/09/27 02:42:50;;;;;;;18.62;7.70;;;;;;;9.00;85.99;101363.23;1736760;81;25830;-78
2021/09/27 02:45:19;;;;;;;13.83;7.45;;;;;;;8.96;86.00;101364.54;1643115;85;28553;-78
2021/09/27 02:47:58;;;;;;;11.50;7.45;;;;;;;8.92;86.20;101363.18;1671317;82;25848;-78
2021/09/27 02:50:30;;;;;;;11.38;6.78;;;;;;;8.93;86.27;101366.70;1703153;81;26027;-78
2021/09/27 02:52:58;;;;;;;13.93;7.40;;;;;;;8.90;86.31;101361.66;1710506;82;25998;-78
2021/09/27 02:55:41;;;;;;;14.05;8.23;;;;;;;8.91;86.47;101356.67;1700333;82;25754;-78
2021/09/27 02:58:28;;;;;;;13.05;7.25;;;;;;;8.94;86.43;101352.36;1683373;82;28167;-78
2021/09/27 03:01:01;;;;;;;10.32;8.03;;;;;;;8.95;86.31;101355.36;1699352;82;26177;-78
2021/09/27 03:04:02;;;;;;;12.78;7.12;;;;;;;8.95;86.26;101360.70;1697780;82;25831;-78
2021/09/27 03:07:12;;;;;;;10.95;7.15;;;;;;;8.97;86.20;101361.38;1716583;82;25798;-78
2021/09/27 03:10:00;;;;;;;14.33;6.90;;;;;;;8.95;86.10;101356.69;1685750;84;25936;-78
2021/09/27 03:12:44;;;;;;;16.52;7.08;;;;;;;8.89;86.13;101358.66;1693680;82;28342;-78
2021/09/27 03:16:08;;;;;;;13.22;6.53;;;;;;;8.84;86.10;101356.46;1702899;83;25879;-78
2021/09/27 03:19:04;;;;;;;17.98;7.12;;;;;;;8.79;86.27;101357.41;1704772;83;25875;-78
2021/09/27 03:22:11;;;;;;;13.03;7.42;;;;;;;8.74;86.32;101357.07;1672326;82;25914;-78
2021/09/27 03:25:19;;;;;;;15.10;7.22;;;;;;;8.73;86.50;101363.88;1699474;82;25852;-78
2021/09/27 03:28:09;;;;;;;14.53;7.12;;;;;;;8.71;86.64;101363.20;1690092;84;27712;-78
2021/09/27 03:31:13;;;;;;;11.08;6.90;;;;;;;8.72;86.70;101364.89;1720198;82;25922;-78
2021/09/27 03:34:10;;;;;;;12.68;6.87;;;;;;;8.71;86.69;101357.37;1707073;82;26000;-78
2021/09/27 03:37:09;;;;;;;11.10;6.40;;;;;;;8.73;86.59;101355.87;1696109;82;26468;-78
2021/09/27 03:39:59;;;;;;;15.75;6.97;;;;;;;8.74;86.44;101358.89;1721316;82;26016;-77
2021/09/27 03:42:46;;;;;;;16.97;7.72;;;;;;;8.74;86.42;101353.55;1694265;83;27625;-78
2021/09/27 03:45:24;;;;;;;14.15;7.37;;;;;;;8.72;86.37;101351.53;1627275;86;25867;-78
2021/09/27 03:48:03;;;;;;;13.32;7.60;;;;;;;8.68;86.37;101346.17;1701594;82;25839;-78
2021/09/27 03:50:41;;;;;;;13.35;6.65;;;;;;;8.63;86.44;101346.63;1691796;82;25888;-78
2021/09/27 03:53:34;;;;;;;9.53;6.53;;;;;;;8.60;86.48;101338.92;1708059;82;25752;-78
2021/09/27 03:56:30;;;;;;;11.85;7.03;;;;;;;8.53;86.65;101336.03;1707092;83;27379;-78
2021/09/27 03:59:06;;;;;;;11.10;6.17;;;;;;;8.48;86.73;101337.02;1677001;83;26348;-78
2021/09/27 04:02:01;;;;;;;18.77;7.83;;;;;;;8.47;86.85;101333.98;1678886;83;25795;-78
2021/09/27 04:04:33;;;;;;;17.05;7.20;;;;;;;8.45;86.92;101336.47;1699733;83;26437;-78
2021/09/27 04:07:15;;;;;;;10.43;6.47;;;;;;;8.43;87.11;101333.12;1702580;83;26096;-78
2021/09/27 04:09:50;;;;;;;11.65;6.92;;;;;;;8.42;87.14;101333.64;1699681;83;27709;-78
2021/09/27 04:12:41;;;;;;;13.58;7.33;;;;;;;8.41;87.25;101333.77;1697097;83;26052;-78
2021/09/27 04:15:31;;;;;;;13.10;6.85;;;;;;;8.41;87.24;101337.77;1693127;83;32592;-78
2021/09/27 04:18:30;;;;;;;11.88;7.08;;;;;;;8.38;87.30;101334.09;1707384;81;26567;-78
2021/09/27 04:21:32;;;;;;;14.75;7.37;;;;;;;8.36;87.38;101336.90;1670226;84;26072;-78
2021/09/27 04:24:14;;;;;;;17.32;7.30;;;;;;;8.35;87.50;101334.39;1691164;84;27562;-78
2021/09/27 04:27:07;;;;;;;14.63;6.65;;;;;;;8.31;87.45;101337.88;1719244;81;25941;-78
2021/09/27 04:30:07;;;;;;;14.33;6.78;;;;;;;8.32;87.59;101336.88;1694514;83;25940;-78
2021/09/27 04:32:55;;;;;;;14.03;7.05;;;;;;;8.32;87.59;101336.02;1702179;83;25855;-78
2021/09/27 04:35:33;;;;;;;11.08;6.65;;;;;;;8.27;87.52;101334.34;1666359;84;25827;-78
2021/09/27 04:38:04;;;;;;;16.07;7.28;;;;;;;8.24;87.53;101330.11;1699316;83;26894;-77
2021/09/27 04:40:57;;;;;;;12.13;6.80;;;;;;;8.21;87.69;101329.06;1669806;83;26162;-78
2021/09/27 04:43:50;;;;;;;14.93;6.65;;;;;;;8.19;87.75;101332.91;1691238;83;25875;-78
2021/09/27 04:46:39;;;;;;;15.10;7.37;;;;;;;8.15;88.04;101335.02;1663807;84;25836;-78
2021/09/27 04:49:45;;;;;;;14.40;6.78;;;;;;;8.14;88.16;101336.52;1703612;83;25741;-78
2021/09/27 04:52:43;;;;;;;15.08;6.45;;;;;;;8.13;88.30;101338.83;1676656;83;28269;-78
2021/09/27 04:55:33;;;;;;;12.82;6.78;;;;;;;8.11;88.50;101334.98;1689189;83;26292;-78
2021/09/27 04:58:39;;;;;;;11.63;6.77;;;;;;;8.11;88.59;101342.99;1662416;84;25852;-78
2021/09/27 05:01:37;;;;;;;12.33;6.37;;;;;;;8.12;88.65;101341.17;1710522;83;25813;-78
2021/09/27 05:04:27;;;;;;;13.83;6.30;;;;;;;8.12;88.67;101346.51;1593011;86;26087;-78
2021/09/27 05:07:40;;;;;;;12.40;6.60;;;;;;;8.11;89.00;101343.48;1674432;83;27477;-78
2021/09/27 05:10:57;;;;;;;14.30;6.80;;;;;;;8.07;88.86;101346.12;1693709;83;25751;-77
2021/09/27 05:13:33;;;;;;;14.23;6.70;;;;;;;8.07;89.20;101344.78;1706926;83;25819;-78
2021/09/27 05:16:24;;;;;;;12.60;6.78;;;;;;;8.08;89.35;101347.32;1682385;83;25880;-78
2021/09/27 05:19:24;;;;;;;12.95;6.67;;;;;;;8.09;89.31;101352.13;1684652;83;25314;-77
2021/09/27 05:22:33;;;;;;;11.63;6.37;;;;;;;8.10;89.41;101356.50;1705307;83;28239;-78
2021/09/27 05:25:38;;;;;;;15.08;6.55;;;;;;;8.11;89.63;101352.82;1686269;84;26541;-78
2021/09/27 05:28:42;;;;;;;13.00;6.92;;;;;;;8.11;89.74;101351.00;1678700;83;25866;-78
2021/09/27 05:31:29;;;;;;;13.38;6.20;;;;;;;8.10;89.80;101344.48;1677258;83;25792;-78
2021/09/27 05:34:39;;;;;;;14.30;6.60;;;;;;;8.13;90.02;101353.02;1678930;83;25829;-78
2021/09/27 05:37:35;;;;;;;16.42;7.25;;;;;;;8.15;90.15;101355.52;1706260;83;27623;-78
2021/09/27 05:40:32;;;;;;;12.58;6.28;;;;;;;8.17;90.42;101353.57;1679713;83;26451;-78
2021/09/27 05:43:16;;;;;;;11.85;6.42;;;;;;;8.19;90.57;101359.59;1682448;83;25964;-77
2021/09/27 05:46:03;;;;;;;14.13;6.83;;;;;;;8.22;90.94;101354.77;1685943;83;25803;-77
2021/09/27 05:49:09;;;;;;;12.45;6.58;;;;;;;8.26;91.00;101353.50;1679613;83;25835;-77
2021/09/27 05:52:03;;;;;;;13.35;6.83;;;;;;;8.32;91.13;101349.37;1710627;83;28109;-77
2021/09/27 05:54:57;;;;;;;12.33;7.00;;;;;;;8.37;91.36;101347.94;1679289;83;25899;-77
2021/09/27 05:57:47;;;;;;;11.90;6.83;;;;;;;8.43;91.42;101347.80;1695612;82;25878;-78
2021/09/27 06:00:34;;;;;;;13.83;6.62;;;;;;;8.51;91.54;101348.70;1692219;84;25884;-78
2021/09/27 06:03:47;;;;;;;11.18;6.60;;;;;;;8.60;91.66;101339.44;1721531;82;25807;-77
2021/09/27 06:06:45;;;;;;;13.80;6.97;;;;;;;8.72;91.78;101340.85;1671213;84;27492;-77
2021/09/27 06:09:47;;;;;;;14.38;6.97;;;;;;;8.85;91.98;101344.80;1670885;83;25819;-77
2021/09/27 06:12:25;;;;;;;15.72;6.78;;;;;;;8.99;92.14;101350.88;1699649;83;26020;-77
2021/09/27 06:14:56;;;;;;;12.15;6.45;;;;;;;9.13;92.24;101354.28;1679819;83;25844;-78
2021/09/27 06:17:55;;;;;;;11.30;6.20;;;;;;;9.26;92.44;101353.84;1683703;83;25793;-78
2021/09/27 06:21:04;;;;;;;13.68;6.70;;;;;;;9.39;92.55;101350.23;1629115;87;27051;-78
2021/09/27 06:24:14;;;;;;;11.00;6.58;;;;;;;9.54;92.44;101345.13;1699537;83;25866;-78
2021/09/27 06:26:47;;;;;;;16.23;6.45;;;;;;;9.68;92.43;101353.86;1677479;83;25986;-78
2021/09/27 06:29:34;;;;;;;10.38;5.87;;;;;;;9.82;92.60;101354.55;1675787;83;25856;-78
2021/09/27 06:32:24;;;;;;;14.25;6.67;;;;;;;9.92;92.87;101353.41;1679223;83;25928;-78
2021/09/27 06:34:56;;;;;;;16.25;6.60;;;;;;;10.03;93.09;101355.77;1696995;83;28176;-78
2021/09/27 06:37:27;;;;;;;17.25;7.25;;;;;;;10.14;93.19;101349.30;1696783;83;25987;-78
2021/09/27 06:39:54;;;;;;;13.58;6.95;;;;;;;10.26;93.10;101345.80;1644061;84;25847;-78
2021/09/27 06:42:21;;;;;;;11.93;6.85;;;;;;;10.37;93.17;101354.86;1691570;84;25770;-78
2021/09/27 06:44:48;;;;;;;11.33;6.58;;;;;;;10.48;93.37;101350.48;1704910;83;25741;-78
2021/09/27 06:47:16;;;;;;;12.55;6.67;;;;;;;10.58;93.19;101346.66;1653539;83;27505;-78
2021/09/27 06:49:43;;;;;;;13.50;7.53;;;;;;;10.69;93.05;101342.27;1633003;84;25918;-78
2021/09/27 06:52:10;;;;;;;18.42;9.43;;;;;;;10.79;92.95;101341.60;1667800;83;25821;-78
2021/09/27 06:54:38;;;;;;;16.30;8.50;;;;;;;10.91;93.05;101344.74;1693578;83;25772;-78
2021/09/27 06:57:05;;;;;;;14.28;7.28;;;;;;;11.00;92.92;101338.36;1680036;84;25841;-78
2021/09/27 06:59:32;;;;;;;13.70;7.47;;;;;;;11.11;92.62;101349.22;1657357;84;27591;-78
2021/09/27 07:01:59;;;;;;;15.75;6.30;;;;;;;11.23;92.91;101350.02;1678688;82;25946;-78
2021/09/27 07:04:26;;;;;;;12.90;6.92;;;;;;;11.33;92.94;101351.98;1680283;82;25769;-78
2021/09/27 07:06:53;;;;;;;13.53;6.47;;;;;;;11.43;92.67;101347.27;1702609;84;26563;-78
2021/09/27 07:09:20;;;;;;;13.85;7.90;;;;;;;11.54;92.96;101348.23;1694092;82;25722;-78
2021/09/27 07:11:47;;;;;;;12.78;7.33;;;;;;;11.65;92.83;101347.02;1666818;82;27439;-78
2021/09/27 07:14:14;;;;;;;10.98;6.40;;;;;;;11.76;92.69;101351.18;1682754;82;25933;-78
2021/09/27 07:16:42;;;;;;;17.12;7.90;;;;;;;11.88;93.10;101353.78;1722150;82;25317;-78
2021/09/27 07:19:10;;;;;;;13.28;7.10;;;;;;;11.98;92.87;101355.23;1694877;83;25814;-78
2021/09/27 07:21:40;;;;;;;13.20;6.67;;;;;;;12.09;92.56;101348.11;1683557;82;26520;-78
2021/09/27 07:24:09;;;;;;;17.60;8.47;;;;;;;12.21;92.41;101349.89;1678080;82;27422;-78
2021/09/27 07:26:37;;;;;;;11.97;6.35;;;;;;;12.31;92.24;101345.10;1676683;84;25837;-78
2021/09/27 07:29:05;;;;;;;15.53;6.62;;;;;;;12.42;92.04;101343.84;1692472;84;25349;-78
2021/09/27 07:31:33;;;;;;;13.65;6.05;;;;;;;12.51;91.62;101342.23;1684735;82;26564;-78
2021/09/27 07:34:04;;;;;;;13.08;6.15;;;;;;;12.61;91.63;101344.68;1653887;84;26686;-78
2021/09/27 07:36:31;;;;;;;15.32;6.20;;;;;;;12.69;90.92;101348.13;1690855;84;28127;-79
2021/09/27 07:38:58;;;;;;;11.63;5.85;;;;;;;12.77;90.60;101345.36;1702694;84;25807;-78
2021/09/27 07:41:26;;;;;;;11.22;5.90;;;;;;;12.89;90.52;101349.80;1689749;83;26139;-78
2021/09/27 07:43:54;;;;;;;13.45;5.85;;;;;;;12.99;90.05;101353.04;1635917;83;25871;-78
2021/09/27 07:46:22;;;;;;;12.95;5.65;;;;;;;13.10;89.37;101360.69;1697726;82;26565;-79
2021/09/27 07:48:50;;;;;;;11.70;6.15;;;;;;;13.19;89.26;101352.86;1719213;82;27152;-78
2021/09/27 07:51:20;;;;;;;10.32;5.90;;;;;;;13.29;88.36;101355.26;1651719;82;25981;-78
2021/09/27 07:53:48;;;;;;;14.10;5.75;;;;;;;13.39;87.93;101355.80;1663756;80;25836;-79
2021/09/27 07:56:16;;;;;;;10.38;4.67;;;;;;;13.47;87.27;101355.20;1723898;81;26503;-79
2021/09/27 07:58:43;;;;;;;11.48;5.47;;;;;;;13.57;87.52;101349.03;1746000;80;26436;-78
2021/09/27 08:01:10;;;;;;;11.68;5.12;;;;;;;13.64;87.05;101343.20;1688391;82;27592;-78
2021/09/27 08:03:37;;;;;;;12.05;5.17;;;;;;;13.72;86.24;101344.96;1683671;81;26028;-79
2021/09/27 08:06:04;;;;;;;11.95;5.45;;;;;;;13.80;86.28;101344.84;1718179;81;26152;-79
2021/09/27 08:08:31;;;;;;;14.43;5.05;;;;;;;13.88;86.04;101345.56;1731636;80;25822;-78
2021/09/27 08:10:59;;;;;;;7.83;4.37;;;;;;;13.96;85.46;101347.33;1645665;82;25791;-78
2021/09/27 08:13:26;;;;;;;12.23;4.83;;;;;;;14.03;84.96;101346.05;1641031;81;28050;-79
2021/09/27 08:15:55;;;;;;;11.48;5.00;;;;;;;14.10;84.65;101348.28;1733416;81;25669;-79
2021/09/27 08:18:23;;;;;;;10.95;4.85;;;;;;;14.17;84.28;101351.38;1739320;81;25761;-78
2021/09/27 08:20:55;;;;;;;10.85;5.10;;;;;;;14.25;84.42;101354.45;1667413;83;25827;-79
2021/09/27 08:23:23;;;;;;;8.45;4.58;;;;;;;14.35;84.20;101348.28;1684578;82;25842;-78
2021/09/27 08:25:53;;;;;;;12.88;4.55;;;;;;;14.45;83.95;101341.53;1728209;81;28122;-79
2021/09/27 08:28:25;;;;;;;8.55;4.42;;;;;;;14.55;82.22;101340.67;1727592;81;25941;-79
2021/09/27 08:30:57;;;;;;;11.28;5.12;;;;;;;14.63;82.63;101347.78;1690206;80;26464;-79
2021/09/27 08:33:25;;;;;;;9.05;4.92;;;;;;;14.71;82.47;101342.27;1707640;80;26535;-79
2021/09/27 08:35:54;;;;;;;8.10;4.00;;;;;;;14.79;81.59;101343.47;1747812;80;25749;-78
2021/09/27 08:38:24;;;;;;;11.03;4.55;;;;;;;14.86;80.79;101345.70;1749368;80;27613;-79
2021/09/27 08:41:08;;;;;;;11.55;4.67;;;;;;;14.92;80.88;101343.56;1713519;81;26601;-79
2021/09/27 08:43:44;;;;;;;9.43;4.20;;;;;;;14.99;80.95;101347.66;1682585;82;25989;-79
2021/09/27 08:46:25;;;;;;;10.43;4.40;;;;;;;15.10;80.71;101349.78;1737267;81;26347;-79
2021/09/27 08:49:18;;;;;;;7.90;4.25;;;;;;;15.18;80.52;101345.06;1739467;81;25791;-79
2021/09/27 08:51:47;;;;;;;11.85;4.60;;;;;;;15.27;80.56;101345.73;1720323;80;27473;-78
2021/09/27 08:54:24;;;;;;;9.45;4.62;;;;;;;15.37;80.53;101349.77;1685107;83;26289;-79
2021/09/27 08:57:11;;;;;;;9.13;4.05;;;;;;;15.47;79.71;101344.53;1688388;83;26033;-79
2021/09/27 08:59:47;;;;;;;7.22;3.92;;;;;;;15.56;79.67;101343.33;1679527;84;26415;-79
2021/09/27 09:02:43;;;;;;;5.80;3.42;;;;;;;15.64;78.46;101341.29;1650029;84;26579;-79
2021/09/27 09:05:40;;;;;;;7.72;4.03;;;;;;;15.73;79.05;101340.59;1692090;83;28266;-79
2021/09/27 09:08:34;;;;;;;6.25;3.47;;;;;;;15.81;77.37;101337.70;1703249;82;25909;-78
2021/09/27 09:11:29;;;;;;;11.22;4.90;;;;;;;15.88;78.35;101343.98;1701085;83;25808;-79
2021/09/27 09:14:27;;;;;;;8.13;3.33;;;;;;;15.95;77.20;101340.78;1675804;84;25876;-79
2021/09/27 09:16:55;;;;;;;11.65;4.28;;;;;;;16.03;77.33;101346.00;1683460;83;25873;-79
2021/09/27 09:19:27;;;;;;;9.85;3.35;;;;;;;16.12;77.31;101337.48;1683935;83;27404;-79
2021/09/27 09:22:00;;;;;;;8.18;3.02;;;;;;;16.22;75.42;101337.09;1673051;84;25768;-79
2021/09/27 09:24:37;;;;;;;11.20;3.20;;;;;;;16.33;74.45;101334.30;1658139;83;25843;-79
2021/09/27 09:27:12;;;;;;;8.45;3.77;;;;;;;16.40;74.68;101338.66;1676600;83;26131;-79
2021/09/27 09:29:42;;;;;;;7.92;3.30;;;;;;;16.46;75.10;101335.16;1679408;84;26570;-79
2021/09/27 09:32:26;;;;;;;6.65;3.60;;;;;;;16.55;74.85;101338.52;1675612;83;28159;-79
2021/09/27 09:35:27;;;;;;;8.68;3.60;;;;;;;16.62;74.38;101337.98;1702747;83;25905;-79
2021/09/27 09:38:05;;;;;;;7.85;3.37;;;;;;;16.71;74.18;101328.62;1690759;83;25828;-78
2021/09/27 09:40:38;;;;;;;7.78;2.85;;;;;;;16.77;73.72;101323.20;1703915;83;26559;-79
2021/09/27 09:43:12;;;;;;;8.90;3.50;;;;;;;16.82;73.95;101320.71;1704994;83;25759;-79
2021/09/27 09:45:44;;;;;;;5.50;2.85;;;;;;;16.91;73.50;101319.98;1699277;82;28342;-79
2021/09/27 09:48:26;;;;;;;5.92;3.22;;;;;;;16.98;72.76;101321.61;1662022;84;25949;-79
2021/09/27 09:51:02;;;;;;;4.05;2.33;;;;;;;17.02;70.94;101317.14;1667629;83;25823;-79
2021/09/27 09:53:36;;;;;;;5.90;2.67;;;;;;;17.07;70.23;101320.03;1705847;82;26617;-79
2021/09/27 09:56:11;;;;;;;4.95;2.27;;;;;;;17.12;70.91;101323.78;1667372;84;25936;-79
2021/09/27 09:58:51;;;;;;;4.00;2.30;;;;;;;17.17;69.31;101327.21;1648398;84;28160;-79
2021/09/27 10:01:35;;;;;;;5.37;2.62;;;;;;;17.18;69.84;101319.38;1688506;84;25741;-79
2021/09/27 10:04:12;;;;;;;4.67;2.12;;;;;;;17.25;70.03;101316.14;1687822;84;25795;-79
2021/09/27 10:06:47;;;;;;;5.33;2.40;;;;;;;17.32;69.23;101310.20;1700269;82;25791;-79
2021/09/27 10:09:31;;;;;;;8.13;2.25;;;;;;;17.34;68.69;101309.45;1668039;82;25850;-79
2021/09/27 10:12:09;;;;;;;6.72;2.62;;;;;;;17.41;68.15;101305.66;1699662;82;27463;-79
2021/09/27 10:14:40;;;;;;;3.50;2.33;;;;;;;17.41;67.73;101301.60;1717529;82;26556;-79
2021/09/27 10:17:28;;;;;;;5.00;2.30;;;;;;;17.49;68.32;101299.19;1698405;82;26583;-80
2021/09/27 10:20:12;;;;;;;5.00;2.40;;;;;;;17.55;68.14;101303.78;1673139;84;26482;-79
2021/09/27 10:22:53;;;;;;;3.60;2.52;;;;;;;17.60;64.81;101301.23;1718233;82;27558;-79
2021/09/27 10:25:27;;;;;;;;;;;;;;;17.65;67.33;101294.14;1705828;83;28057;-80
2021/09/27 10:27:54;;;;;;;8.30;2.50;;;;;;;17.72;66.23;101299.53;1681612;84;26021;-79
2021/09/27 10:30:26;;;;;;;11.90;2.52;;;;;;;17.73;65.22;101291.17;1670912;82;26632;-79
2021/09/27 10:33:01;;;;;;;7.28;2.00;;;;;;;17.77;63.08;101292.11;1690705;84;26558;-79
2021/09/27 10:35:40;;;;;;;5.20;1.95;;;;;;;17.81;63.53;101290.63;1687690;83;25939;-79
2021/09/27 10:38:18;;;;;;;6.45;2.45;;;;;;;17.86;64.31;101288.07;1700516;82;28347;-79
2021/09/27 10:40:48;;;;;;;4.28;2.02;;;;;;;17.88;64.64;101288.17;1697953;82;25863;-79
2021/09/27 10:43:21;;;;;;;5.83;2.12;;;;;;;17.97;63.65;101281.44;1666936;83;25934;-79
2021/09/27 10:45:56;;;;;;;3.70;1.67;;;;;;;18.02;63.73;101281.63;1692523;84;27322;-79
2021/09/27 10:48:24;;;;;;;4.03;2.10;;;;;;;18.06;62.51;101277.42;1659410;83;25826;-79
2021/09/27 10:50:56;;;;;;;2.87;1.80;;;;;;;18.13;63.59;101271.45;1685865;83;27497;-79
2021/09/27 10:53:47;;;;;;;4.12;2.17;;;;;;;18.23;63.86;101272.30;1686848;81;26276;-80
2021/09/27 10:56:43;;;;;;;3.62;1.60;;;;;;;18.28;64.17;101271.92;1696273;83;25753;-79
2021/09/27 10:59:13;;;;;;;8.45;2.15;;;;;;;18.32;64.02;101269.10;1719552;83;25828;-79
2021/09/27 11:01:54;;;;;;;4.37;1.52;;;;;;;18.39;64.06;101269.86;1709704;82;26216;-80
2021/09/27 11:04:35;;;;;;;8.20;2.05;;;;;;;18.44;62.89;101271.42;1679538;83;27546;-80
2021/09/27 11:07:22;;;;;;;;;;;;;;;18.41;62.64;101254.73;1745301;81;25827;-79
2021/09/27 11:09:50;;;;;;;5.15;1.30;;;;;;;18.40;60.89;101257.97;1707200;82;25885;-80
2021/09/27 11:12:34;;;;;;;2.67;1.70;;;;;;;18.41;61.95;101262.88;1673069;83;25831;-79
2021/09/27 11:15:34;;;;;;;4.70;1.85;;;;;;;18.41;61.57;101261.52;1711198;83;25723;-79
2021/09/27 11:18:25;;;;;;;3.17;1.67;;;;;;;18.42;62.25;101258.58;1697365;82;27440;-80
2021/09/27 11:21:03;;;;;;;4.70;2.08;;;;;;;18.48;61.51;101261.50;1680999;83;25884;-80
2021/09/27 11:23:35;;;;;;;5.78;2.75;;;;;;;18.52;60.09;101260.80;1700142;82;25745;-79
2021/09/27 11:26:20;;;;;;;3.12;2.02;;;;;;;18.55;59.33;101254.94;1715543;83;26372;-79
2021/09/27 11:29:04;;;;;;;5.55;1.75;;;;;;;18.59;60.15;101248.02;1677317;83;25960;-80
2021/09/27 11:31:37;;;;;;;10.50;2.30;;;;;;;18.66;60.48;101242.00;1721652;82;27583;-79
2021/09/27 11:34:42;;;;;;;3.62;1.65;;;;;;;18.73;60.29;101235.99;1696418;83;26468;-79
2021/09/27 11:37:31;;;;;;;6.40;2.70;;;;;;;18.79;58.50;101241.88;1722828;83;26638;-80
2021/09/27 11:40:18;;;;;;;3.65;1.72;;;;;;;18.74;57.94;101233.56;1681817;83;25883;-79
2021/09/27 11:43:10;;;;;;;5.47;1.47;;;;;;;18.75;58.15;101232.52;1681519;83;25909;-80
2021/09/27 11:46:08;;;;;;;3.75;1.65;;;;;;;18.74;57.33;101236.28;1670787;82;28453;-79
2021/09/27 11:48:49;;;;;;;7.00;2.00;;;;;;;18.79;55.67;101226.95;1719362;83;25809;-79
2021/09/27 11:51:26;;;;;;;2.67;1.70;;;;;;;18.85;54.47;101226.03;1713148;83;25888;-79
2021/09/27 11:54:19;;;;;;;5.92;2.30;;;;;;;18.91;53.23;101218.34;1685731;83;25798;-80
2021/09/27 11:57:10;;;;;;;2.80;1.70;;;;;;;18.96;54.99;101230.72;1715951;83;25750;-80
2021/09/27 12:00:07;;;;;;;3.35;2.00;;;;;;;18.99;55.91;101224.82;1684462;84;27462;-79
2021/09/27 12:02:45;;;;;;;6.15;1.52;;;;;;;19.04;56.14;101226.34;1709374;83;26423;-79
2021/09/27 12:05:43;;;;;;;4.22;1.52;;;;;;;19.08;56.08;101229.42;1677097;84;25899;-79
2021/09/27 12:08:26;;;;;;;3.72;1.77;;;;;;;19.10;55.00;101223.23;1665617;84;25833;-80
2021/09/27 12:11:09;;;;;;;2.62;1.60;;;;;;;19.11;54.47;101221.67;1689318;82;26053;-80
2021/09/27 12:13:50;;;;;;;3.87;2.02;;;;;;;19.16;52.85;101217.72;1702987;82;27535;-79
2021/09/27 12:16:23;;;;;;;;;;;;;;;19.24;55.25;101216.59;1694780;82;25951;-79
2021/09/27 12:18:55;;;;;;;3.37;1.70;;;;;;;19.29;52.00;101211.29;1693310;82;25836;-79
2021/09/27 12:21:30;;;;;;;3.47;1.82;;;;;;;19.32;53.49;101212.73;1720073;82;25818;-79
2021/09/27 12:24:26;;;;;;;3.75;1.52;;;;;;;19.35;53.84;101214.51;1650574;82;26621;-79
2021/09/27 12:27:17;;;;;;;5.55;2.05;;;;;;;19.36;52.82;101216.15;1722060;82;27110;-80
2021/09/27 12:30:08;;;;;;;;;;;;;;;19.38;54.45;101214.03;1687596;82;26448;-79